createdAt,value
2022-10-31T00:02:02.862Z,8.45
2022-10-31T00:07:42.142Z,8.52
2022-10-31T00:11:56.100Z,8.39
2022-10-31T00:16:57.517Z,8.28
2022-10-31T00:22:47.181Z,8.38
2022-10-31T00:26:59.955Z,8.21
2022-10-31T00:32:02.095Z,8.12
2022-10-31T00:37:03.496Z,8.09
2022-10-31T00:42:05.528Z,8.02
2022-10-31T00:47:54.998Z,8.16
2022-10-31T00:52:08.075Z,8
2022-10-31T00:57:09.857Z,7.93
2022-10-31T01:02:11.572Z,7.88
2022-10-31T01:07:13.367Z,7.83
2022-10-31T01:12:15.010Z,7.78
2022-10-31T01:17:16.349Z,7.77
2022-10-31T01:22:18.276Z,7.7
2022-10-31T01:27:20.203Z,7.69
2022-10-31T01:32:33.541Z,7.63
2022-10-31T01:37:23.819Z,7.63
2022-10-31T01:42:25.136Z,7.56
2022-10-31T01:47:26.609Z,7.55
2022-10-31T01:52:27.772Z,7.49
2022-10-31T01:57:29.470Z,7.44
2022-10-31T02:02:30.880Z,7.44
2022-10-31T02:08:20.414Z,7.57
2022-10-31T02:14:21.370Z,7.64
2022-10-31T02:19:59.690Z,7.59
2022-10-31T02:22:54.544Z,7.58
2022-10-31T02:27:39.862Z,7.44
2022-10-31T02:32:41.849Z,7.4
2022-10-31T02:37:43.662Z,7.34
2022-10-31T02:42:45.555Z,7.35
2022-10-31T02:47:47.106Z,7.32
2022-10-31T02:52:48.620Z,7.32
2022-10-31T02:57:50.624Z,7.26
2022-10-31T03:02:53.906Z,7.24
2022-10-31T03:08:04.847Z,7.21
2022-10-31T03:12:56.753Z,7.24
2022-10-31T03:17:58.942Z,7.22
2022-10-31T03:23:00.609Z,7.17
2022-10-31T03:28:02.511Z,7.16
2022-10-31T03:33:03.843Z,7.19
2022-10-31T03:38:53.017Z,7.33
2022-10-31T03:44:42.673Z,7.39
2022-10-31T03:48:08.724Z,7.25
2022-10-31T03:53:10.282Z,7.21
2022-10-31T03:58:12.411Z,7.16
2022-10-31T04:03:13.910Z,7.17
2022-10-31T04:09:03.528Z,7.31
2022-10-31T04:18:19.292Z,7.13
2022-10-31T04:23:20.655Z,7.07
2022-10-31T04:28:22.453Z,7.06
2022-10-31T04:33:24.054Z,7.01
2022-10-31T04:38:25.285Z,6.94
2022-10-31T04:43:27.241Z,6.93
2022-10-31T04:49:16.774Z,7.08
2022-10-31T04:53:30.295Z,6.97
2022-10-31T04:58:32.218Z,6.93
2022-10-31T05:03:33.618Z,6.86
2022-10-31T05:08:35.169Z,6.8
2022-10-31T05:13:36.776Z,6.76
2022-10-31T05:18:38.742Z,6.73
2022-10-31T05:23:43.044Z,6.67
2022-10-31T05:28:42.016Z,6.62
2022-10-31T05:33:43.266Z,6.58
2022-10-31T05:38:54.625Z,6.48
2022-10-31T05:43:46.810Z,6.46
2022-10-31T05:48:48.830Z,6.42
2022-10-31T05:53:50.195Z,6.34
2022-10-31T05:58:51.915Z,6.33
2022-10-31T06:03:53.498Z,6.28
2022-10-31T06:08:54.738Z,6.24
2022-10-31T06:13:56.121Z,6.26
2022-10-31T06:18:57.833Z,6.22
2022-10-31T06:23:59.997Z,6.21
2022-10-31T06:29:03.021Z,6.24
2022-10-31T06:34:02.880Z,6.25
2022-10-31T06:39:14.903Z,6.23
2022-10-31T06:44:54.277Z,6.41
2022-10-31T06:49:07.801Z,6.36
2022-10-31T06:54:09.385Z,6.33
2022-10-31T06:59:10.892Z,6.39
2022-10-31T07:04:12.379Z,6.5
2022-10-31T07:09:14.108Z,6.59
2022-10-31T07:14:15.632Z,6.74
2022-10-31T07:19:17.713Z,6.9
2022-10-31T07:24:19.816Z,7.19
2022-10-31T07:29:21.780Z,7.68
2022-10-31T07:34:23.271Z,7.99
2022-10-31T07:39:25.366Z,8.22
2022-10-31T07:44:26.916Z,8.56
2022-10-31T07:49:29.005Z,8.95
2022-10-31T07:54:30.942Z,9.35
2022-10-31T07:59:32.812Z,9.7
2022-10-31T08:05:22.478Z,10.24
2022-10-31T08:09:36.410Z,10.51
2022-10-31T08:15:26.051Z,10.97
2022-10-31T08:19:39.866Z,11.18
2022-10-31T08:24:41.184Z,11.48
2022-10-31T08:29:42.699Z,11.84
2022-10-31T08:34:44.326Z,12.2
2022-10-31T08:40:34.012Z,12.58
2022-10-31T08:44:47.474Z,12.77
2022-10-31T08:49:48.759Z,13.05
2022-10-31T08:54:50.136Z,13.35
2022-10-31T08:59:52.199Z,13.6
2022-10-31T09:04:53.628Z,13.81
2022-10-31T09:09:55.092Z,14.09
2022-10-31T09:15:44.809Z,14.48
2022-10-31T09:19:58.547Z,14.56
2022-10-31T09:24:59.877Z,14.58
2022-10-31T09:30:01.662Z,14.73
2022-10-31T09:35:03.098Z,14.79
2022-10-31T09:40:04.416Z,14.91
2022-10-31T09:45:06.433Z,15.14
2022-10-31T09:50:15.482Z,15.41
2022-10-31T09:55:09.099Z,15.42
2022-10-31T10:00:10.744Z,15.43
2022-10-31T10:05:12.396Z,15.55
2022-10-31T10:10:14.339Z,15.55
2022-10-31T10:15:16.188Z,15.49
2022-10-31T10:21:05.806Z,15.78
2022-10-31T10:25:19.268Z,15.77
2022-10-31T10:30:21.200Z,15.72
2022-10-31T10:35:22.668Z,15.86
2022-10-31T10:40:23.921Z,15.97
2022-10-31T10:45:25.223Z,16.17
2022-10-31T10:50:37.433Z,16.33
2022-10-31T10:55:28.904Z,16.52
2022-10-31T11:01:18.507Z,16.79
2022-10-31T11:05:32.395Z,16.74
2022-10-31T11:17:21.962Z,17.12
2022-10-31T11:20:37.957Z,17.04
2022-10-31T11:25:39.327Z,17.02
2022-10-31T11:30:41.208Z,17.04
2022-10-31T11:35:43.122Z,17.02
2022-10-31T11:40:55.704Z,17.07
2022-10-31T11:45:45.770Z,17.14
2022-10-31T11:50:57.592Z,17.12
2022-10-31T11:55:49.445Z,17.25
2022-10-31T12:00:51.159Z,17.34
2022-10-31T12:05:52.790Z,17.41
2022-10-31T12:10:53.878Z,17.35
2022-10-31T12:15:55.792Z,17.51
2022-10-31T12:21:07.607Z,17.59
2022-10-31T12:25:59.298Z,17.54
2022-10-31T12:31:12.084Z,17.53
2022-10-31T12:36:02.361Z,17.49
2022-10-31T12:41:13.986Z,17.45
2022-10-31T12:46:05.533Z,17.41
2022-10-31T12:51:07.320Z,17.4
2022-10-31T12:56:56.812Z,17.52
2022-10-31T13:01:10.806Z,17.36
2022-10-31T13:06:12.650Z,17.42
2022-10-31T13:11:14.524Z,17.46
2022-10-31T13:16:16.066Z,17.56
2022-10-31T13:21:17.485Z,17.5
2022-10-31T13:27:07.074Z,17.73
2022-10-31T13:41:24.619Z,17.45
2022-10-31T13:51:28.242Z,17.33
2022-10-31T14:01:31.637Z,17.16
2022-10-31T14:06:33.468Z,17.06
2022-10-31T14:11:36.341Z,17.04
2022-10-31T14:22:26.338Z,17.15
2022-10-31T14:46:56.930Z,16.87
2022-10-31T14:51:58.647Z,16.82
2022-10-31T14:57:00.649Z,16.74
2022-10-31T15:02:02.207Z,16.6
2022-10-31T15:07:14.395Z,16.58
2022-10-31T15:12:06.150Z,16.52
2022-10-31T15:17:19.451Z,16.37
2022-10-31T15:22:09.586Z,16.29
2022-10-31T15:27:11.345Z,16.23
2022-10-31T15:32:13.304Z,16.17
2022-10-31T15:37:24.170Z,16.04
2022-10-31T15:42:16.801Z,16.03
2022-10-31T15:47:18.778Z,15.93
2022-10-31T15:52:20.540Z,15.85
2022-10-31T15:57:22.613Z,15.75
2022-10-31T16:02:24.745Z,15.67
2022-10-31T16:07:26.107Z,15.55
2022-10-31T16:12:28.040Z,15.49
2022-10-31T16:17:29.645Z,15.34
2022-10-31T16:22:31.577Z,15.21
2022-10-31T16:27:32.868Z,15.02
2022-10-31T16:32:34.519Z,14.91
2022-10-31T16:37:36.151Z,14.75
2022-10-31T16:42:38.012Z,14.59
2022-10-31T16:47:50.039Z,14.42
2022-10-31T16:52:53.656Z,14.27
2022-10-31T16:57:43.614Z,14.1
2022-10-31T17:03:33.242Z,14.09
2022-10-31T17:07:45.293Z,13.85
2022-10-31T17:12:47.343Z,13.69
2022-10-31T17:17:49.407Z,13.49
2022-10-31T17:22:50.796Z,13.32
2022-10-31T17:27:53.050Z,13.31
2022-10-31T17:33:42.700Z,13.23
2022-10-31T17:39:32.309Z,13.13
2022-10-31T17:42:57.708Z,12.87
2022-10-31T17:47:59.466Z,12.63
2022-10-31T17:53:01.635Z,12.5
2022-10-31T17:58:51.008Z,12.5
2022-10-31T18:04:40.629Z,12.47
2022-10-31T18:10:30.267Z,12.28
2022-10-31T18:13:08.550Z,12.06
2022-10-31T18:18:58.211Z,12.02
2022-10-31T18:24:47.831Z,11.96
2022-10-31T18:28:13.599Z,11.64
2022-10-31T18:33:14.973Z,11.51
2022-10-31T18:38:17.057Z,11.27
2022-10-31T18:44:06.679Z,11.37
2022-10-31T18:48:20.610Z,11.16
2022-10-31T18:53:22.166Z,10.98
2022-10-31T18:58:35.084Z,10.88
2022-10-31T19:04:13.412Z,10.88
2022-10-31T19:13:29.050Z,10.58
2022-10-31T19:18:30.864Z,10.44
2022-10-31T19:23:32.260Z,10.36
2022-10-31T19:28:33.423Z,10.24
2022-10-31T19:33:36.045Z,10.17
2022-10-31T19:39:24.691Z,10.26
2022-10-31T19:43:38.595Z,10
2022-10-31T19:48:40.206Z,9.85
2022-10-31T19:53:42.031Z,9.79
2022-10-31T19:58:43.916Z,9.68
2022-10-31T20:03:45.678Z,9.6
2022-10-31T20:08:47.364Z,9.52
2022-10-31T20:13:49.568Z,9.43
2022-10-31T20:18:51.417Z,9.39
2022-10-31T20:23:53.077Z,9.34
2022-10-31T20:28:54.922Z,9.24
2022-10-31T20:34:44.594Z,9.33
2022-10-31T20:38:57.519Z,9.16
2022-10-31T20:43:59.626Z,9
2022-10-31T20:49:01.479Z,8.91
2022-10-31T20:54:02.984Z,8.85
2022-10-31T20:59:16.138Z,8.85
2022-10-31T21:04:54.462Z,8.97
2022-10-31T21:10:44.137Z,9.03
2022-10-31T21:16:33.741Z,9
2022-10-31T21:19:11.859Z,8.85
2022-10-31T21:24:13.268Z,8.75
2022-10-31T21:29:15.351Z,8.72
2022-10-31T21:34:17.355Z,8.64
2022-10-31T21:40:06.955Z,8.81
2022-10-31T21:44:20.246Z,8.66
2022-10-31T21:49:22.372Z,8.6
2022-10-31T21:54:24.112Z,8.6
2022-10-31T21:59:26.003Z,8.62
2022-10-31T22:04:27.899Z,8.64
2022-10-31T22:09:29.048Z,8.63
2022-10-31T22:14:31.233Z,8.64
2022-10-31T22:19:33.025Z,8.68
2022-10-31T22:24:34.782Z,8.68
2022-10-31T22:30:24.469Z,8.87
2022-10-31T22:34:38.448Z,8.74
2022-10-31T22:39:39.951Z,8.66
2022-10-31T22:44:41.563Z,8.63
2022-10-31T22:50:31.204Z,8.77
2022-10-31T22:56:20.812Z,8.85
2022-10-31T22:59:47.296Z,8.64
2022-10-31T23:14:52.401Z,8.35
2022-10-31T23:19:54.481Z,8.25
2022-10-31T23:24:56.462Z,8.14
2022-10-31T23:30:46.141Z,8.18
2022-10-31T23:34:59.587Z,7.98
2022-10-31T23:40:01.409Z,7.92
2022-10-31T23:45:02.932Z,7.87
2022-10-31T23:50:04.834Z,7.79
2022-10-31T23:55:06.003Z,7.71
